Nbp Island — V2FH3 — position and weather

sailwx.info

Track history (hours):
 
Tides and Currents Weather Stations Pressure Air Temp Water Temp Dewpoint Dewpoint Depression Visibility Wind Speed Wind Dir Waves Ship Positions

Nbp Island

Last reported at 2018-Apr-24 20:31 UTC. Time now 2018-Apr-24 20:56 UTC.
Position N 54°56' E 010°56'.

Length 107 m; draft 8.4 m.

Type: Cargo ship. MMSI: 305674000.

Date/timePositionNaut miles runAvg speedWind from/ knotsBaromVisibWave heightAir tempDewpointWater temp
2018-Apr-24 20:31N 54°56' E 010°56'611.6
2018-Apr-24 20:00N 55°01' E 011°01'612.1
2018-Apr-24 19:31N 55°07' E 011°02'611.3
2018-Apr-24 18:59N 55°13' E 011°06'109 9.4
2018-Apr-24 07:23N 56°60' E 011°42'410.1
2018-Apr-24 07:00N 57°03' E 011°39'5 9.7
2018-Apr-24 06:30N 57°08' E 011°36'5 9.6
2018-Apr-24 06:01N 57°12' E 011°33'510.2
2018-Apr-24 05:30N 57°17' E 011°30'510.1
2018-Apr-24 05:00N 57°22' E 011°26'510.2
2018-Apr-24 04:31N 57°26' E 011°23'5 9.7
2018-Apr-24 04:00N 57°30' E 011°16'510.8
2018-Apr-24 03:30N 57°32' E 011°07'510.9
2018-Apr-24 03:01N 57°34' E 010°58'611.0
2018-Apr-24 02:30N 57°37' E 010°48'611.0
2018-Apr-24 02:00N 57°39' E 010°39'2 4.3
2018-Apr-24 01:29N 57°41' E 010°37'0 0.1
2018-Apr-24 00:59N 57°41' E 010°37'0 0.0
2018-Apr-24 00:29N 57°41' E 010°37'0 0.0
2018-Apr-23 23:56N 57°41' E 010°37'0 0.0
2018-Apr-23 23:23N 57°41' E 010°37'0 0.1
2018-Apr-23 22:53N 57°41' E 010°37'0 0.0
2018-Apr-23 22:20N 57°41' E 010°37'0 0.0
2018-Apr-23 21:56N 57°41' E 010°37'0 0.0
2018-Apr-23 21:29N 57°41' E 010°37'0 0.0
2018-Apr-23 20:59N 57°41' E 010°37'0 0.0
2018-Apr-23 20:29N 57°41' E 010°37'0 0.0
2018-Apr-23 19:56N 57°41' E 010°37'0 0.1
2018-Apr-23 19:30N 57°41' E 010°37'0 0.2
2018-Apr-23 19:00N 57°41' E 010°37'5 9.4
2018-Apr-23 18:30N 57°44' E 010°44'4 8.0
2018-Apr-23 18:00N 57°47' E 010°40'6911.2
2018-Apr-23 11:52N 57°20' E 008°42'411.5
2018-Apr-23 11:28N 57°17' E 008°36'611.5
2018-Apr-23 10:59N 57°14' E 008°27'511.5
2018-Apr-23 10:30N 57°10' E 008°19'611.7
2018-Apr-23 09:59N 57°07' E 008°10'611.5
2018-Apr-23 09:30N 57°03' E 008°02'611.3
2018-Apr-23 08:59N 56°59' E 007°54'611.3
2018-Apr-23 08:29N 56°56' E 007°46'611.1
2018-Apr-23 07:59N 56°52' E 007°39'511.3
2018-Apr-23 07:30N 56°47' E 007°34'611.2
2018-Apr-23 06:59N 56°42' E 007°28'511.0
2018-Apr-23 06:30N 56°38' E 007°23'510.7
2018-Apr-23 06:00N 56°33' E 007°18'510.8
2018-Apr-23 05:30N 56°28' E 007°13'610.9
2018-Apr-23 04:58N 56°23' E 007°08'510.7
2018-Apr-23 04:28N 56°19' E 007°03'2310.7
2018-Apr-23 02:20N 55°59' E 006°41'410.7
2018-Apr-23 02:00N 55°56' E 006°37'26511.1
2018-Apr-22 02:03N 52°10' E 002°43'1 9.6
2018-Apr-22 01:59N 52°10' E 002°43'5 9.6
2018-Apr-22 01:29N 52°05' E 002°42'5 9.2
2018-Apr-22 00:57N 52°00' E 002°42'4 9.1
2018-Apr-22 00:29N 51°56' E 002°40'5 9.5
2018-Apr-21 23:59N 51°51' E 002°39'4 9.1
2018-Apr-21 23:30N 51°47' E 002°37'5 9.4
2018-Apr-21 22:59N 51°43' E 002°32'5 9.7
2018-Apr-21 22:30N 51°39' E 002°28'510.0
2018-Apr-21 22:00N 51°35' E 002°23'510.2
2018-Apr-21 21:29N 51°31' E 002°18'510.5
2018-Apr-21 21:00N 51°27' E 002°14'510.8
2018-Apr-21 20:30N 51°22' E 002°10'611.1
2018-Apr-21 20:00N 51°17' E 002°06'611.2
2018-Apr-21 19:31N 51°13' E 001°60'611.4
2018-Apr-21 19:00N 51°10' E 001°53'611.6
2018-Apr-21 18:30N 51°06' E 001°46'612.1
2018-Apr-21 17:59N 51°01' E 001°39'612.7
2018-Apr-21 17:29N 50°57' E 001°32'712.5
2018-Apr-21 16:54N 50°50' E 001°26'512.8
2018-Apr-21 16:30N 50°45' E 001°24'1711.6
2018-Apr-21 15:00N 50°34' E 001°03'1411.4
2018-Apr-21 13:46N 50°29' E 000°43'412.0
2018-Apr-21 13:27N 50°28' E 000°37'512.3
2018-Apr-21 13:00N 50°26' E 000°29'612.6
2018-Apr-21 12:30N 50°25' E 000°19'612.9
2018-Apr-21 12:00N 50°23' E 000°09'612.5
2018-Apr-21 11:29N 50°21' W 000°01'612.5
2018-Apr-21 11:00N 50°19' W 000°10'612.4
2018-Apr-21 10:30N 50°18' W 000°19'612.1
2018-Apr-21 10:00N 50°16' W 000°28'611.7
2018-Apr-21 09:30N 50°14' W 000°37'611.1
2018-Apr-21 09:00N 50°13' W 000°45'610.5
2018-Apr-21 08:25N 50°11' W 000°54'4 9.8
2018-Apr-21 08:00N 50°10' W 001°00'5 9.3
2018-Apr-21 07:30N 50°09' W 001°08'4 8.6
2018-Apr-21 07:00N 50°08' W 001°14'4 8.0
2018-Apr-21 06:31N 50°07' W 001°20'4 7.7
2018-Apr-21 06:00N 50°06' W 001°26'4 7.5
2018-Apr-21 05:30N 50°05' W 001°32'4 7.4
2018-Apr-21 05:00N 50°04' W 001°37'4 7.2
2018-Apr-21 04:30N 50°03' W 001°43'4 7.6
2018-Apr-21 04:01N 50°02' W 001°48'4 8.1
2018-Apr-21 03:30N 50°01' W 001°54'4 8.8
2018-Apr-21 03:01N 49°60' W 002°01'5 9.7
2018-Apr-21 02:31N 49°59' W 002°08'510.6
2018-Apr-21 02:00N 49°57' W 002°16'611.3
2018-Apr-21 01:30N 49°56' W 002°24'611.7
2018-Apr-21 01:00N 49°54' W 002°33'611.8
2018-Apr-21 00:30N 49°53' W 002°42'612.0
2018-Apr-21 00:00N 49°51' W 002°51'612.1
2018-Apr-20 23:31N 49°50' W 003°00'612.1
2018-Apr-20 23:00N 49°49' W 003°10'612.2
2018-Apr-20 22:31N 49°48' W 003°19'612.2
2018-Apr-20 22:00N 49°47' W 003°28'912.3
2018-Apr-20 21:16N 49°46' W 003°42'7911.0
2018-Apr-20 14:07N 49°39' W 005°43'23 9.5
2018-Apr-20 11:40N 49°39' W 006°19'6710.3
2018-Apr-20 05:13N 50°14' W 007°47'2710.4
2018-Apr-20 02:35N 50°30' W 008°22'110.4
2018-Apr-20 02:30N 50°31' W 008°23'810.2
2018-Apr-20 01:44N 50°36' W 008°33'210.1
2018-Apr-20 01:30N 50°37' W 008°36'3710.1
2018-Apr-19 21:54N 51°00' W 009°20'410.5
2018-Apr-19 21:30N 51°03' W 009°25'510.4
2018-Apr-19 21:00N 51°07' W 009°31'510.5
2018-Apr-19 20:30N 51°11' W 009°37'510.6
2018-Apr-19 20:00N 51°14' W 009°43'510.6
2018-Apr-19 19:30N 51°18' W 009°49'510.5
2018-Apr-19 19:00N 51°21' W 009°56'714.6
2018-Apr-19 18:30N 51°25' W 010°06'3 6.9
2018-Apr-19 18:00N 51°27' W 010°11'510.4
2018-Apr-19 17:30N 51°29' W 010°18'510.1
2018-Apr-19 17:00N 51°32' W 010°25'26 8.0
2018-Apr-19 13:49N 51°53' W 010°47'3 9.0
2018-Apr-19 13:29N 51°56' W 010°47'7 9.1
2018-Apr-19 12:40N 52°04' W 010°47'2 9.0
2018-Apr-19 12:24N 52°06' W 010°47'4 9.2
2018-Apr-19 12:00N 52°09' W 010°43'611.3
2018-Apr-19 11:30N 52°14' W 010°38'5 8.9
2018-Apr-19 10:59N 52°16' W 010°32'6 9.8
2018-Apr-19 10:20N 52°20' W 010°23'410.3
2018-Apr-19 09:58N 52°22' W 010°18'5 9.9
2018-Apr-19 09:31N 52°24' W 010°11'510.2
2018-Apr-19 09:00N 52°26' W 010°04'910.3
2018-Apr-19 08:06N 52°31' W 009°50'110.3
2018-Apr-19 07:57N 52°31' W 009°48'  
2018-Apr-14 21:52N 52°35' W 009°39'2 5.8
2018-Apr-14 21:28N 52°34' W 009°42'2 5.0
2018-Apr-14 20:58N 52°33' W 009°46'  
Track history (hours):
 
Tides and Currents Weather Stations Pressure Air Temp Water Temp Dewpoint Dewpoint Depression Visibility Wind Speed Wind Dir Waves Ship Positions

Nbp Island

Last reported at 2018-Apr-24 20:31 UTC. Time now 2018-Apr-24 20:56 UTC.
Position N 54°56' E 010°56'.

Length 107 m; draft 8.4 m.

Type: Cargo ship. MMSI: 305674000.

Date/timePositionNaut miles runAvg speedWind from/ knotsBaromVisibWave heightAir tempDewpointWater temp
2018-Apr-24 20:31N 54°56' E 010°56'611.6
2018-Apr-24 20:00N 55°01' E 011°01'612.1
2018-Apr-24 19:31N 55°07' E 011°02'611.3
2018-Apr-24 18:59N 55°13' E 011°06'109 9.4
2018-Apr-24 07:23N 56°60' E 011°42'410.1
2018-Apr-24 07:00N 57°03' E 011°39'5 9.7
2018-Apr-24 06:30N 57°08' E 011°36'5 9.6
2018-Apr-24 06:01N 57°12' E 011°33'510.2
2018-Apr-24 05:30N 57°17' E 011°30'510.1
2018-Apr-24 05:00N 57°22' E 011°26'510.2
2018-Apr-24 04:31N 57°26' E 011°23'5 9.7
2018-Apr-24 04:00N 57°30' E 011°16'510.8
2018-Apr-24 03:30N 57°32' E 011°07'510.9
2018-Apr-24 03:01N 57°34' E 010°58'611.0
2018-Apr-24 02:30N 57°37' E 010°48'611.0
2018-Apr-24 02:00N 57°39' E 010°39'2 4.3
2018-Apr-24 01:29N 57°41' E 010°37'0 0.1
2018-Apr-24 00:59N 57°41' E 010°37'0 0.0
2018-Apr-24 00:29N 57°41' E 010°37'0 0.0
2018-Apr-23 23:56N 57°41' E 010°37'0 0.0
2018-Apr-23 23:23N 57°41' E 010°37'0 0.1
2018-Apr-23 22:53N 57°41' E 010°37'0 0.0
2018-Apr-23 22:20N 57°41' E 010°37'0 0.0
2018-Apr-23 21:56N 57°41' E 010°37'0 0.0
2018-Apr-23 21:29N 57°41' E 010°37'0 0.0
2018-Apr-23 20:59N 57°41' E 010°37'0 0.0
2018-Apr-23 20:29N 57°41' E 010°37'0 0.0
2018-Apr-23 19:56N 57°41' E 010°37'0 0.1
2018-Apr-23 19:30N 57°41' E 010°37'0 0.2
2018-Apr-23 19:00N 57°41' E 010°37'5 9.4
2018-Apr-23 18:30N 57°44' E 010°44'4 8.0
2018-Apr-23 18:00N 57°47' E 010°40'6911.2
2018-Apr-23 11:52N 57°20' E 008°42'411.5
2018-Apr-23 11:28N 57°17' E 008°36'611.5
2018-Apr-23 10:59N 57°14' E 008°27'511.5
2018-Apr-23 10:30N 57°10' E 008°19'611.7
2018-Apr-23 09:59N 57°07' E 008°10'611.5
2018-Apr-23 09:30N 57°03' E 008°02'611.3
2018-Apr-23 08:59N 56°59' E 007°54'611.3
2018-Apr-23 08:29N 56°56' E 007°46'611.1
2018-Apr-23 07:59N 56°52' E 007°39'511.3
2018-Apr-23 07:30N 56°47' E 007°34'611.2
2018-Apr-23 06:59N 56°42' E 007°28'511.0
2018-Apr-23 06:30N 56°38' E 007°23'510.7
2018-Apr-23 06:00N 56°33' E 007°18'510.8
2018-Apr-23 05:30N 56°28' E 007°13'610.9
2018-Apr-23 04:58N 56°23' E 007°08'510.7
2018-Apr-23 04:28N 56°19' E 007°03'2310.7
2018-Apr-23 02:20N 55°59' E 006°41'410.7
2018-Apr-23 02:00N 55°56' E 006°37'26511.1
2018-Apr-22 02:03N 52°10' E 002°43'1 9.6
2018-Apr-22 01:59N 52°10' E 002°43'5 9.6
2018-Apr-22 01:29N 52°05' E 002°42'5 9.2
2018-Apr-22 00:57N 52°00' E 002°42'4 9.1
2018-Apr-22 00:29N 51°56' E 002°40'5 9.5
2018-Apr-21 23:59N 51°51' E 002°39'4 9.1
2018-Apr-21 23:30N 51°47' E 002°37'5 9.4
2018-Apr-21 22:59N 51°43' E 002°32'5 9.7
2018-Apr-21 22:30N 51°39' E 002°28'510.0
2018-Apr-21 22:00N 51°35' E 002°23'510.2
2018-Apr-21 21:29N 51°31' E 002°18'510.5
2018-Apr-21 21:00N 51°27' E 002°14'510.8
2018-Apr-21 20:30N 51°22' E 002°10'611.1
2018-Apr-21 20:00N 51°17' E 002°06'611.2
2018-Apr-21 19:31N 51°13' E 001°60'611.4
2018-Apr-21 19:00N 51°10' E 001°53'611.6
2018-Apr-21 18:30N 51°06' E 001°46'612.1
2018-Apr-21 17:59N 51°01' E 001°39'612.7
2018-Apr-21 17:29N 50°57' E 001°32'712.5
2018-Apr-21 16:54N 50°50' E 001°26'512.8
2018-Apr-21 16:30N 50°45' E 001°24'1711.6
2018-Apr-21 15:00N 50°34' E 001°03'1411.4
2018-Apr-21 13:46N 50°29' E 000°43'412.0
2018-Apr-21 13:27N 50°28' E 000°37'512.3
2018-Apr-21 13:00N 50°26' E 000°29'612.6
2018-Apr-21 12:30N 50°25' E 000°19'612.9
2018-Apr-21 12:00N 50°23' E 000°09'612.5
2018-Apr-21 11:29N 50°21' W 000°01'612.5
2018-Apr-21 11:00N 50°19' W 000°10'612.4
2018-Apr-21 10:30N 50°18' W 000°19'612.1
2018-Apr-21 10:00N 50°16' W 000°28'611.7
2018-Apr-21 09:30N 50°14' W 000°37'611.1
2018-Apr-21 09:00N 50°13' W 000°45'610.5
2018-Apr-21 08:25N 50°11' W 000°54'4 9.8
2018-Apr-21 08:00N 50°10' W 001°00'5 9.3
2018-Apr-21 07:30N 50°09' W 001°08'4 8.6
2018-Apr-21 07:00N 50°08' W 001°14'4 8.0
2018-Apr-21 06:31N 50°07' W 001°20'4 7.7
2018-Apr-21 06:00N 50°06' W 001°26'4 7.5
2018-Apr-21 05:30N 50°05' W 001°32'4 7.4
2018-Apr-21 05:00N 50°04' W 001°37'4 7.2
2018-Apr-21 04:30N 50°03' W 001°43'4 7.6
2018-Apr-21 04:01N 50°02' W 001°48'4 8.1
2018-Apr-21 03:30N 50°01' W 001°54'4 8.8
2018-Apr-21 03:01N 49°60' W 002°01'5 9.7
2018-Apr-21 02:31N 49°59' W 002°08'510.6
2018-Apr-21 02:00N 49°57' W 002°16'611.3
2018-Apr-21 01:30N 49°56' W 002°24'611.7
2018-Apr-21 01:00N 49°54' W 002°33'611.8
2018-Apr-21 00:30N 49°53' W 002°42'612.0
2018-Apr-21 00:00N 49°51' W 002°51'612.1
2018-Apr-20 23:31N 49°50' W 003°00'612.1
2018-Apr-20 23:00N 49°49' W 003°10'612.2
2018-Apr-20 22:31N 49°48' W 003°19'612.2
2018-Apr-20 22:00N 49°47' W 003°28'912.3
2018-Apr-20 21:16N 49°46' W 003°42'7911.0
2018-Apr-20 14:07N 49°39' W 005°43'23 9.5
2018-Apr-20 11:40N 49°39' W 006°19'6710.3
2018-Apr-20 05:13N 50°14' W 007°47'2710.4
2018-Apr-20 02:35N 50°30' W 008°22'110.4
2018-Apr-20 02:30N 50°31' W 008°23'810.2
2018-Apr-20 01:44N 50°36' W 008°33'210.1
2018-Apr-20 01:30N 50°37' W 008°36'3710.1
2018-Apr-19 21:54N 51°00' W 009°20'410.5
2018-Apr-19 21:30N 51°03' W 009°25'510.4
2018-Apr-19 21:00N 51°07' W 009°31'510.5
2018-Apr-19 20:30N 51°11' W 009°37'510.6
2018-Apr-19 20:00N 51°14' W 009°43'510.6
2018-Apr-19 19:30N 51°18' W 009°49'510.5
2018-Apr-19 19:00N 51°21' W 009°56'714.6
2018-Apr-19 18:30N 51°25' W 010°06'3 6.9
2018-Apr-19 18:00N 51°27' W 010°11'510.4
2018-Apr-19 17:30N 51°29' W 010°18'510.1
2018-Apr-19 17:00N 51°32' W 010°25'26 8.0
2018-Apr-19 13:49N 51°53' W 010°47'3 9.0
2018-Apr-19 13:29N 51°56' W 010°47'7 9.1
2018-Apr-19 12:40N 52°04' W 010°47'2 9.0
2018-Apr-19 12:24N 52°06' W 010°47'4 9.2
2018-Apr-19 12:00N 52°09' W 010°43'611.3
2018-Apr-19 11:30N 52°14' W 010°38'5 8.9
2018-Apr-19 10:59N 52°16' W 010°32'6 9.8
2018-Apr-19 10:20N 52°20' W 010°23'410.3
2018-Apr-19 09:58N 52°22' W 010°18'5 9.9
2018-Apr-19 09:31N 52°24' W 010°11'510.2
2018-Apr-19 09:00N 52°26' W 010°04'910.3
2018-Apr-19 08:06N 52°31' W 009°50'110.3
2018-Apr-19 07:57N 52°31' W 009°48'  
2018-Apr-14 21:52N 52°35' W 009°39'2 5.8
2018-Apr-14 21:28N 52°34' W 009°42'2 5.0
2018-Apr-14 20:58N 52°33' W 009°46'  

Dump ship's entire track history